Time;durP1;ratioP1;P1;durP2;ratioP2;P2;SDS_P1;SDS_P2;PMS_P1;PMS_P2;Temp;Humidity;BMP_temperature;BMP_pressure;BME280_temperature;BME280_humidity;BME280_pressure;Samples;Min_cycle;Max_cycle;Signal;HPM_P1;HPM_P2
2021/11/17 02:28:15;;;;;;;11.85;5.72;;;;;;;;;;5018348;28;20025;-57
2021/11/17 02:30:55;;;;;;;12.60;6.20;;;;;;;;;;5018315;28;20087;-54
2021/11/17 02:33:26;;;;;;;11.73;6.25;;;;;;;;;;5020051;28;20061;-56
2021/11/17 02:36:01;;;;;;;13.98;7.18;;;;;;;;;;5022670;28;20140;-57
2021/11/17 02:38:51;;;;;;;13.02;6.50;;;;;;;;;;5019661;28;20056;-56
2021/11/17 02:41:41;;;;;;;14.60;6.97;;;;;;;;;;5014279;28;20508;-56
2021/11/17 02:44:18;;;;;;;;;;;;;;;;;;5018687;28;20029;-56
2021/11/17 02:46:52;;;;;;;13.30;6.55;;;;;;;;;;5022304;28;20030;-57
2021/11/17 02:49:33;;;;;;;12.57;6.53;;;;;;;;;;5021216;28;20069;-55
2021/11/17 02:52:25;;;;;;;14.82;6.82;;;;;;;;;;5023815;28;20480;-55
2021/11/17 02:55:04;;;;;;;12.52;6.20;;;;;;;;;;5022421;28;20025;-56
2021/11/17 02:57:55;;;;;;;12.50;5.93;;;;;;;;;;5017301;28;20021;-57
2021/11/17 03:00:30;;;;;;;11.57;6.00;;;;;;;;;;5020105;28;20398;-56
2021/11/17 03:03:11;;;;;;;13.50;5.97;;;;;;;;;;5019897;28;20060;-56
2021/11/17 03:05:39;;;;;;;10.77;5.55;;;;;;;;;;5020303;28;20025;-55
2021/11/17 03:08:17;;;;;;;11.93;5.93;;;;;;;;;;5019224;28;20025;-57
2021/11/17 03:11:10;;;;;;;15.05;6.43;;;;;;;;;;5017622;28;20040;-56
2021/11/17 03:13:41;;;;;;;12.30;6.38;;;;;;;;;;5019263;28;20120;-56
2021/11/17 03:16:18;;;;;;;14.90;6.85;;;;;;;;;;5020734;28;20108;-55
2021/11/17 03:19:01;;;;;;;13.85;6.30;;;;;;;;;;5014776;28;20033;-55
2021/11/17 03:21:52;;;;;;;13.60;6.43;;;;;;;;;;5022767;28;20393;-56
2021/11/17 03:24:51;;;;;;;16.83;6.53;;;;;;;;;;5022123;28;20017;-55
2021/11/17 03:27:25;;;;;;;13.73;5.80;;;;;;;;;;5004232;28;20407;-56
2021/11/17 03:30:09;;;;;;;9.73;5.93;;;;;;;;;;5020353;28;20491;-56
2021/11/17 03:32:43;;;;;;;12.55;6.30;;;;;;;;;;5019896;28;21143;-55
2021/11/17 03:35:23;;;;;;;13.10;6.57;;;;;;;;;;5020063;28;20033;-55
2021/11/17 03:38:10;;;;;;;12.35;6.45;;;;;;;;;;5022675;28;20033;-55
2021/11/17 03:40:54;;;;;;;12.48;6.80;;;;;;;;;;5022694;28;20467;-56
2021/11/17 03:43:39;;;;;;;12.55;6.80;;;;;;;;;;5018568;28;20112;-57
2021/11/17 03:46:20;;;;;;;15.75;6.80;;;;;;;;;;5021118;28;20091;-55
2021/11/17 03:48:49;;;;;;;13.60;6.63;;;;;;;;;;5020509;28;20040;-57
2021/11/17 03:51:52;;;;;;;15.45;7.68;;;;;;;;;;5017585;28;20499;-55
2021/11/17 03:54:31;;;;;;;13.77;6.47;;;;;;;;;;5002501;28;20068;-55
2021/11/17 03:57:20;;;;;;;14.48;6.43;;;;;;;;;;5019356;28;20136;-56
2021/11/17 03:59:46;;;;;;;14.93;7.38;;;;;;;;;;5028902;28;20026;-57
2021/11/17 04:02:35;;;;;;;16.75;6.85;;;;;;;;;;5022301;28;20052;-56
2021/11/17 04:05:15;;;;;;;17.75;7.20;;;;;;;;;;5013836;28;20212;-56
2021/11/17 04:07:56;;;;;;;17.30;7.63;;;;;;;;;;5022403;28;20376;-55
2021/11/17 04:10:37;;;;;;;17.10;7.68;;;;;;;;;;5020215;28;20064;-56
2021/11/17 04:13:29;;;;;;;16.35;7.43;;;;;;;;;;5025579;28;20029;-57
2021/11/17 04:16:13;;;;;;;17.38;7.60;;;;;;;;;;5025980;28;20033;-56
2021/11/17 04:18:54;;;;;;;13.52;6.78;;;;;;;;;;5027605;28;20029;-54
2021/11/17 04:21:40;;;;;;;17.20;7.82;;;;;;;;;;5022428;28;20045;-57
2021/11/17 04:24:31;;;;;;;16.00;7.40;;;;;;;;;;5022090;28;20168;-55
2021/11/17 04:27:22;;;;;;;16.33;7.50;;;;;;;;;;5019579;28;20040;-57
2021/11/17 04:29:53;;;;;;;18.30;6.72;;;;;;;;;;5021147;28;20025;-54
2021/11/17 04:33:00;;;;;;;12.57;6.35;;;;;;;;;;5026677;28;20022;-56
2021/11/17 04:35:44;;;;;;;14.23;7.05;;;;;;;;;;5020371;28;20040;-55
2021/11/17 04:38:28;;;;;;;16.45;6.35;;;;;;;;;;5022923;28;20091;-55
2021/11/17 04:40:59;;;;;;;14.93;6.32;;;;;;;;;;5024315;28;20068;-55
2021/11/17 04:43:36;;;;;;;14.20;6.07;;;;;;;;;;5019101;28;20057;-55
2021/11/17 04:46:02;;;;;;;12.90;6.05;;;;;;;;;;5027005;28;20021;-56
2021/11/17 04:48:46;;;;;;;15.93;6.60;;;;;;;;;;5018642;28;20040;-55
2021/11/17 04:51:11;;;;;;;14.43;7.22;;;;;;;;;;5021364;28;20411;-56
2021/11/17 04:53:57;;;;;;;15.13;6.80;;;;;;;;;;5025485;28;20112;-54
2021/11/17 04:56:46;;;;;;;16.70;7.03;;;;;;;;;;5026300;28;20037;-61
2021/11/17 04:59:17;;;;;;;15.50;6.22;;;;;;;;;;5028156;28;20398;-56
2021/11/17 05:01:46;;;;;;;11.20;5.80;;;;;;;;;;5026568;28;20052;-55
2021/11/17 05:04:20;;;;;;;12.20;5.57;;;;;;;;;;5026017;28;20111;-54
2021/11/17 05:06:52;;;;;;;11.85;5.43;;;;;;;;;;5026015;28;20033;-56
2021/11/17 05:09:32;;;;;;;9.05;5.15;;;;;;;;;;5023272;28;20557;-54
2021/11/17 05:12:16;;;;;;;13.18;4.95;;;;;;;;;;5025642;28;20048;-56
2021/11/17 05:15:24;;;;;;;10.02;5.00;;;;;;;;;;5026642;28;20025;-55
2021/11/17 05:18:08;;;;;;;8.10;4.30;;;;;;;;;;5028185;28;20036;-56
2021/11/17 05:20:49;;;;;;;10.85;3.95;;;;;;;;;;5023754;28;20033;-55
2021/11/17 05:23:36;;;;;;;9.23;4.65;;;;;;;;;;5024262;28;20052;-60
2021/11/17 05:26:17;;;;;;;10.85;4.18;;;;;;;;;;5025799;28;20495;-54
2021/11/17 05:29:21;;;;;;;10.25;4.70;;;;;;;;;;5022206;28;20480;-56
2021/11/17 05:31:49;;;;;;;7.90;3.88;;;;;;;;;;5021030;28;20051;-57
2021/11/17 05:34:39;;;;;;;8.10;4.38;;;;;;;;;;5023737;28;20052;-56
2021/11/17 05:37:22;;;;;;;8.35;4.57;;;;;;;;;;5023275;28;20028;-56
2021/11/17 05:40:09;;;;;;;8.32;4.50;;;;;;;;;;5022426;28;20488;-55
2021/11/17 05:42:34;;;;;;;10.50;4.60;;;;;;;;;;5019787;28;20034;-56
2021/11/17 05:45:10;;;;;;;10.57;4.97;;;;;;;;;;5022994;28;20460;-57
2021/11/17 05:48:00;;;;;;;15.68;4.68;;;;;;;;;;5025904;28;20021;-56
2021/11/17 05:51:03;;;;;;;8.57;4.63;;;;;;;;;;5026519;28;20078;-55
2021/11/17 05:54:03;;;;;;;9.32;4.95;;;;;;;;;;5021350;28;20036;-55
2021/11/17 05:56:47;;;;;;;10.52;5.47;;;;;;;;;;5006910;28;20045;-55
2021/11/17 05:59:44;;;;;;;7.70;4.20;;;;;;;;;;5034685;28;20532;-57
2021/11/17 06:02:12;;;;;;;7.97;4.15;;;;;;;;;;5009918;28;20045;-55
2021/11/17 06:04:38;;;;;;;10.20;4.93;;;;;;;;;;5023314;28;20400;-56
2021/11/17 06:07:03;;;;;;;8.10;4.38;;;;;;;;;;5020006;28;20030;-55
2021/11/17 06:09:28;;;;;;;10.73;3.70;;;;;;;;;;5024971;28;20025;-57
2021/11/17 06:12:05;;;;;;;10.70;4.72;;;;;;;;;;5024826;28;20743;-57
2021/11/17 06:14:35;;;;;;;9.48;4.80;;;;;;;;;;5019410;28;20388;-57
2021/11/17 06:17:08;;;;;;;7.50;4.50;;;;;;;;;;5023347;28;20507;-59
2021/11/17 06:19:38;;;;;;;9.27;4.93;;;;;;;;;;5021007;28;20028;-56
2021/11/17 06:22:05;;;;;;;8.85;4.15;;;;;;;;;;5023948;28;20163;-57
2021/11/17 06:24:30;;;;;;;8.75;4.35;;;;;;;;;;5023218;28;20037;-58
2021/11/17 06:26:56;;;;;;;9.20;4.95;;;;;;;;;;5022012;28;20025;-56
2021/11/17 06:29:35;;;;;;;13.25;6.22;;;;;;;;;;5027415;28;20048;-56
2021/11/17 06:32:03;;;;;;;15.20;5.93;;;;;;;;;;5018836;28;20059;-55
2021/11/17 06:34:28;;;;;;;12.80;5.63;;;;;;;;;;5020970;28;20034;-57
2021/11/17 06:36:54;;;;;;;9.32;4.65;;;;;;;;;;5025071;28;20032;-56
2021/11/17 06:39:19;;;;;;;11.18;4.43;;;;;;;;;;5022486;28;20026;-57
2021/11/17 06:41:46;;;;;;;13.45;5.43;;;;;;;;;;5016765;28;20033;-57
2021/11/17 06:44:11;;;;;;;11.02;5.43;;;;;;;;;;5020373;28;20372;-56
2021/11/17 06:46:36;;;;;;;10.70;5.15;;;;;;;;;;5018722;28;20025;-56
2021/11/17 06:49:04;;;;;;;11.75;5.78;;;;;;;;;;5016921;28;20029;-57
2021/11/17 06:51:29;;;;;;;9.73;4.47;;;;;;;;;;5016340;28;20105;-57
2021/11/17 06:53:55;;;;;;;10.82;5.70;;;;;;;;;;5020061;28;20404;-55
2021/11/17 06:56:21;;;;;;;10.32;5.47;;;;;;;;;;5021060;28;20029;-57
2021/11/17 06:58:47;;;;;;;10.27;5.03;;;;;;;;;;5024221;28;20044;-56
2021/11/17 07:01:13;;;;;;;13.88;5.72;;;;;;;;;;5022181;28;20029;-58
2021/11/17 07:03:39;;;;;;;10.68;5.28;;;;;;;;;;5014684;28;20112;-57
2021/11/17 07:06:05;;;;;;;11.05;5.70;;;;;;;;;;5015604;28;20029;-58
2021/11/17 07:08:31;;;;;;;10.13;4.93;;;;;;;;;;5015639;28;20025;-58
2021/11/17 07:10:56;;;;;;;10.48;5.13;;;;;;;;;;5020729;28;20023;-58
2021/11/17 07:13:22;;;;;;;12.38;6.18;;;;;;;;;;5021731;28;20041;-57
2021/11/17 07:15:47;;;;;;;11.05;5.18;;;;;;;;;;5017754;28;20407;-58
2021/11/17 07:18:13;;;;;;;12.20;6.22;;;;;;;;;;5019561;28;20075;-55
2021/11/17 07:20:39;;;;;;;12.25;5.63;;;;;;;;;;5022933;28;20087;-56
2021/11/17 07:23:07;;;;;;;11.88;5.88;;;;;;;;;;5020278;28;20034;-57
2021/11/17 07:25:32;;;;;;;12.73;6.05;;;;;;;;;;5016713;28;20121;-54
2021/11/17 07:27:59;;;;;;;11.82;6.03;;;;;;;;;;5019195;28;20112;-57
2021/11/17 07:30:28;;;;;;;14.00;5.95;;;;;;;;;;5022472;28;20531;-56
2021/11/17 07:32:54;;;;;;;13.23;6.30;;;;;;;;;;5015593;28;20026;-56
2021/11/17 07:35:22;;;;;;;14.05;6.13;;;;;;;;;;5019090;28;20279;-57
2021/11/17 07:37:48;;;;;;;11.05;5.90;;;;;;;;;;5016159;28;20033;-57
2021/11/17 07:40:14;;;;;;;14.45;7.15;;;;;;;;;;5016219;28;20029;-58
2021/11/17 07:42:41;;;;;;;12.98;5.82;;;;;;;;;;5017989;28;20040;-55
2021/11/17 07:45:08;;;;;;;11.93;5.78;;;;;;;;;;5021682;28;20044;-56
2021/11/17 07:47:34;;;;;;;13.05;6.22;;;;;;;;;;5018716;28;20022;-57
2021/11/17 07:50:01;;;;;;;11.35;6.20;;;;;;;;;;5017298;28;20026;-56
2021/11/17 07:52:27;;;;;;;14.30;6.55;;;;;;;;;;5020428;28;20048;-57
2021/11/17 07:54:53;;;;;;;14.75;6.90;;;;;;;;;;5016112;28;20030;-57
2021/11/17 07:57:19;;;;;;;13.18;6.53;;;;;;;;;;5022161;28;20107;-56
2021/11/17 07:59:45;;;;;;;12.10;6.05;;;;;;;;;;5019928;28;20060;-57
2021/11/17 08:02:12;;;;;;;11.35;5.60;;;;;;;;;;5014151;28;20396;-57
2021/11/17 08:04:41;;;;;;;10.93;5.45;;;;;;;;;;5019968;28;20224;-58
2021/11/17 08:07:11;;;;;;;11.77;5.50;;;;;;;;;;5018139;28;20049;-57
2021/11/17 08:09:37;;;;;;;11.30;5.93;;;;;;;;;;5018335;28;20088;-55
2021/11/17 08:12:03;;;;;;;9.20;4.80;;;;;;;;;;5024547;28;20199;-56
2021/11/17 08:14:29;;;;;;;12.10;5.53;;;;;;;;;;5021605;28;20036;-56
2021/11/17 08:16:54;;;;;;;11.13;5.72;;;;;;;;;;5022717;28;20033;-58
2021/11/17 08:19:19;;;;;;;10.77;4.80;;;;;;;;;;5022111;28;20036;-57
2021/11/17 08:21:45;;;;;;;10.48;5.28;;;;;;;;;;5023814;28;20029;-59
2021/11/17 08:24:10;;;;;;;10.95;5.40;;;;;;;;;;5018509;28;20039;-56
2021/11/17 08:26:36;;;;;;;9.38;5.03;;;;;;;;;;5019398;28;20057;-58
2021/11/17 08:29:02;;;;;;;10.57;5.03;;;;;;;;;;5025108;28;20448;-58
2021/11/17 08:31:28;;;;;;;8.82;5.00;;;;;;;;;;5019557;28;20148;-57
2021/11/17 08:33:54;;;;;;;9.88;4.55;;;;;;;;;;5019144;28;20151;-58
2021/11/17 08:36:20;;;;;;;8.23;4.38;;;;;;;;;;5019384;28;20033;-58
2021/11/17 08:38:50;;;;;;;9.48;4.38;;;;;;;;;;5018745;28;20048;-58
2021/11/17 08:41:17;;;;;;;10.05;3.72;;;;;;;;;;5022642;28;20029;-56
2021/11/17 08:43:42;;;;;;;9.32;5.25;;;;;;;;;;5021890;28;20029;-57
2021/11/17 08:46:09;;;;;;;8.30;4.63;;;;;;;;;;5020481;28;20029;-57
2021/11/17 08:48:37;;;;;;;10.15;4.82;;;;;;;;;;5016074;28;20040;-57
2021/11/17 08:51:06;;;;;;;11.48;6.10;;;;;;;;;;5021346;28;20163;-56
2021/11/17 08:53:34;;;;;;;11.68;5.68;;;;;;;;;;5019772;28;20429;-57
2021/11/17 08:56:05;;;;;;;12.13;6.03;;;;;;;;;;5019508;28;20033;-57
2021/11/17 08:58:30;;;;;;;10.40;5.70;;;;;;;;;;5016373;28;20396;-57
2021/11/17 09:00:56;;;;;;;13.13;6.45;;;;;;;;;;5013057;28;20388;-57
2021/11/17 09:03:21;;;;;;;13.50;6.30;;;;;;;;;;5017627;28;20232;-56
2021/11/17 09:05:50;;;;;;;17.67;8.45;;;;;;;;;;5017561;28;20038;-55
2021/11/17 09:08:19;;;;;;;17.08;7.50;;;;;;;;;;5018763;28;20021;-58
2021/11/17 09:10:48;;;;;;;15.63;7.20;;;;;;;;;;5019800;28;20037;-57
2021/11/17 09:13:15;;;;;;;14.38;7.38;;;;;;;;;;5019429;28;20041;-58
2021/11/17 09:15:43;;;;;;;12.23;7.15;;;;;;;;;;5017683;28;20056;-56
2021/11/17 09:18:10;;;;;;;12.07;6.75;;;;;;;;;;5018332;28;20037;-58
2021/11/17 09:20:36;;;;;;;13.38;7.85;;;;;;;;;;5014303;28;20030;-56
2021/11/17 09:23:04;;;;;;;13.43;7.63;;;;;;;;;;5017394;28;20109;-58
2021/11/17 09:25:30;;;;;;;14.60;8.07;;;;;;;;;;5023446;28;20021;-58
2021/11/17 09:27:56;;;;;;;16.20;7.18;;;;;;;;;;5023870;28;20034;-57
2021/11/17 09:30:25;;;;;;;13.90;7.80;;;;;;;;;;5021904;28;20052;-55
2021/11/17 09:32:53;;;;;;;22.60;9.40;;;;;;;;;;5018228;28;20045;-57
2021/11/17 09:35:20;;;;;;;19.45;7.75;;;;;;;;;;5021279;28;20385;-58
2021/11/17 09:37:47;;;;;;;16.38;7.43;;;;;;;;;;5024135;28;20411;-58
2021/11/17 09:40:18;;;;;;;10.70;5.85;;;;;;;;;;5016554;28;20377;-57
2021/11/17 09:42:43;;;;;;;14.23;6.05;;;;;;;;;;5023204;28;20084;-58
2021/11/17 09:45:10;;;;;;;16.85;6.60;;;;;;;;;;5021466;28;20121;-57
2021/11/17 09:47:37;;;;;;;12.48;6.45;;;;;;;;;;5015441;28;20127;-57
2021/11/17 09:50:07;;;;;;;17.38;7.97;;;;;;;;;;5024480;28;20065;-57
2021/11/17 09:52:41;;;;;;;24.80;12.77;;;;;;;;;;5019402;28;20482;-56
2021/11/17 09:55:36;;;;;;;27.98;13.18;;;;;;;;;;5019698;28;20168;-57
2021/11/17 09:58:09;;;;;;;20.73;11.02;;;;;;;;;;5021165;28;20500;-58
2021/11/17 10:00:38;;;;;;;14.02;7.82;;;;;;;;;;5020763;28;20081;-57
2021/11/17 10:03:06;;;;;;;15.32;7.55;;;;;;;;;;5018442;28;20030;-57
2021/11/17 10:14:05;;;;;;;12.60;6.40;;;;;;;;;;5020523;28;20064;-57
2021/11/17 10:16:31;;;;;;;12.73;5.85;;;;;;;;;;5017606;28;20072;-57
2021/11/17 10:19:15;;;;;;;11.73;5.60;;;;;;;;;;5018877;28;20021;-56
2021/11/17 10:21:42;;;;;;;10.63;5.38;;;;;;;;;;5021742;28;20026;-54
2021/11/17 10:24:14;;;;;;;11.98;5.90;;;;;;;;;;5023556;28;20079;-56
2021/11/17 10:27:01;;;;;;;11.02;5.93;;;;;;;;;;5018745;28;20029;-56
2021/11/17 10:29:37;;;;;;;11.38;6.53;;;;;;;;;;5016377;28;20021;-57
2021/11/17 10:32:18;;;;;;;14.00;6.90;;;;;;;;;;5021177;28;20052;-56
2021/11/17 10:34:54;;;;;;;13.52;6.10;;;;;;;;;;5023409;28;20037;-56
2021/11/17 10:37:23;;;;;;;9.73;6.25;;;;;;;;;;5024493;28;20108;-57
2021/11/17 10:39:49;;;;;;;15.77;7.35;;;;;;;;;;5020744;28;20040;-55
2021/11/17 10:42:20;;;;;;;14.63;6.80;;;;;;;;;;5023636;28;20383;-56
2021/11/17 10:44:55;;;;;;;15.05;8.40;;;;;;;;;;5025351;28;20029;-56
2021/11/17 10:47:26;;;;;;;14.95;7.57;;;;;;;;;;5022136;28;20111;-57
2021/11/17 10:49:58;;;;;;;11.02;5.72;;;;;;;;;;5020251;28;20033;-56
2021/11/17 10:52:49;;;;;;;11.63;6.28;;;;;;;;;;5018953;28;20144;-57
2021/11/17 10:55:38;;;;;;;10.88;5.78;;;;;;;;;;5021104;28;20029;-57
2021/11/17 10:58:10;;;;;;;9.80;5.72;;;;;;;;;;5021311;28;20042;-55
2021/11/17 11:00:43;;;;;;;9.35;5.60;;;;;;;;;;5021726;28;20052;-56
2021/11/17 11:03:11;;;;;;;10.75;5.00;;;;;;;;;;5022427;28;20029;-56
2021/11/17 11:05:41;;;;;;;10.18;5.60;;;;;;;;;;5021425;28;20040;-57
2021/11/17 11:08:21;;;;;;;16.55;7.53;;;;;;;;;;5018586;28;20030;-57
2021/11/17 11:10:51;;;;;;;46.78;15.75;;;;;;;;;;5018067;28;20034;-56
2021/11/17 11:13:45;;;;;;;20.83;8.40;;;;;;;;;;5023697;28;20092;-56
2021/11/17 11:16:19;;;;;;;12.75;6.38;;;;;;;;;;5021240;28;20056;-56
2021/11/17 11:18:49;;;;;;;9.95;5.85;;;;;;;;;;5018273;28;20025;-57
2021/11/17 11:21:18;;;;;;;14.88;6.85;;;;;;;;;;5021192;28;20064;-56
2021/11/17 11:24:09;;;;;;;18.17;8.15;;;;;;;;;;5020764;28;20396;-55
2021/11/17 11:26:59;;;;;;;18.70;9.00;;;;;;;;;;5019833;28;20035;-56
2021/11/17 11:29:33;;;;;;;16.05;7.65;;;;;;;;;;5017442;28;20026;-56
2021/11/17 11:32:01;;;;;;;11.98;6.82;;;;;;;;;;5015047;28;20029;-56
2021/11/17 11:34:58;;;;;;;8.50;4.63;;;;;;;;;;5017282;28;20025;-56
2021/11/17 11:37:23;;;;;;;7.68;4.68;;;;;;;;;;5016530;28;20108;-55
2021/11/17 11:39:54;;;;;;;12.25;6.68;;;;;;;;;;5020420;28;20108;-57
2021/11/17 11:42:44;;;;;;;14.45;6.40;;;;;;;;;;5020429;28;20137;-57
2021/11/17 11:45:10;;;;;;;11.80;5.60;;;;;;;;;;5019751;28;20029;-57
2021/11/17 11:47:41;;;;;;;10.15;5.70;;;;;;;;;;5017932;28;20021;-57
2021/11/17 11:50:25;;;;;;;9.48;5.13;;;;;;;;;;5020814;28;20038;-55
2021/11/17 11:53:14;;;;;;;9.07;4.75;;;;;;;;;;5022188;28;20144;-57
2021/11/17 11:55:52;;;;;;;11.05;6.22;;;;;;;;;;5013917;28;20482;-56
2021/11/17 11:58:24;;;;;;;8.13;4.53;;;;;;;;;;5012739;28;20283;-58
2021/11/17 12:00:59;;;;;;;6.30;3.90;;;;;;;;;;5014514;28;20036;-57
2021/11/17 12:03:28;;;;;;;6.93;3.45;;;;;;;;;;5013313;28;20115;-58
2021/11/17 12:06:04;;;;;;;4.97;3.38;;;;;;;;;;5016535;28;20588;-58
2021/11/17 12:09:08;;;;;;;7.53;4.00;;;;;;;;;;5010350;28;20105;-57
2021/11/17 12:11:42;;;;;;;7.20;3.92;;;;;;;;;;5008921;28;20128;-57
2021/11/17 12:14:23;;;;;;;6.15;3.50;;;;;;;;;;5012325;28;20030;-57
2021/11/17 12:16:51;;;;;;;7.22;3.88;;;;;;;;;;5001404;28;20625;-57
2021/11/17 12:19:31;;;;;;;7.00;4.30;;;;;;;;;;5023329;28;20538;-56
2021/11/17 12:22:09;;;;;;;15.73;8.20;;;;;;;;;;5018730;28;20043;-56
2021/11/17 12:24:39;;;;;;;13.82;7.00;;;;;;;;;;5015313;28;20577;-57
2021/11/17 12:27:04;;;;;;;10.73;5.65;;;;;;;;;;5020352;28;20112;-56
2021/11/17 12:29:41;;;;;;;9.43;5.20;;;;;;;;;;5023277;28;20105;-56
2021/11/17 12:32:28;;;;;;;9.82;4.38;;;;;;;;;;5017770;28;20808;-58
2021/11/17 12:34:58;;;;;;;10.23;4.65;;;;;;;;;;5021663;28;20034;-57
2021/11/17 12:37:24;;;;;;;6.82;3.60;;;;;;;;;;5021634;28;20175;-57
2021/11/17 12:39:49;;;;;;;6.68;3.42;;;;;;;;;;5026575;28;20555;-57
2021/11/17 12:42:33;;;;;;;8.48;4.30;;;;;;;;;;5015449;28;20303;-57
2021/11/17 12:45:00;;;;;;;9.88;5.03;;;;;;;;;;5022037;28;20429;-56
2021/11/17 12:47:51;;;;;;;11.90;5.95;;;;;;;;;;5017866;28;20242;-57
2021/11/17 12:50:28;;;;;;;11.73;5.35;;;;;;;;;;5020232;28;20021;-58
2021/11/17 12:53:08;;;;;;;12.90;5.68;;;;;;;;;;5026447;28;20080;-57
2021/11/17 12:55:42;;;;;;;;;;;;;;;;;;5017717;28;20392;-57
2021/11/17 12:58:15;;;;;;;9.73;4.57;;;;;;;;;;5020311;28;20243;-56
2021/11/17 13:00:52;;;;;;;12.90;5.57;;;;;;;;;;5023468;28;20499;-56
2021/11/17 13:03:31;;;;;;;9.55;5.45;;;;;;;;;;5019277;28;20488;-56
2021/11/17 13:06:05;;;;;;;7.93;4.25;;;;;;;;;;5024369;28;20026;-57
2021/11/17 13:08:33;;;;;;;6.55;4.07;;;;;;;;;;5030512;28;20029;-57
2021/11/17 13:10:58;;;;;;;7.43;4.22;;;;;;;;;;5023438;28;20029;-57
2021/11/17 13:13:38;;;;;;;11.70;4.45;;;;;;;;;;5018637;28;20415;-57
2021/11/17 13:16:08;;;;;;;8.63;4.18;;;;;;;;;;5023665;28;20073;-55
2021/11/17 13:18:49;;;;;;;13.23;5.72;;;;;;;;;;5023477;28;20033;-57
2021/11/17 13:21:29;;;;;;;7.90;4.53;;;;;;;;;;5021450;28;20025;-56
2021/11/17 13:24:03;;;;;;;8.07;3.65;;;;;;;;;;5016991;28;20083;-56
2021/11/17 13:26:36;;;;;;;7.13;4.07;;;;;;;;;;5022703;28;20113;-58
2021/11/17 13:29:21;;;;;;;7.82;4.40;;;;;;;;;;5021275;28;20034;-58
2021/11/17 13:31:47;;;;;;;9.68;4.82;;;;;;;;;;5022070;28;20083;-56
2021/11/17 13:34:35;;;;;;;7.88;4.70;;;;;;;;;;5024487;28;20517;-56
2021/11/17 13:37:24;;;;;;;7.93;5.18;;;;;;;;;;5019783;28;20026;-57
2021/11/17 13:39:58;;;;;;;9.18;5.25;;;;;;;;;;5020626;28;20064;-56
2021/11/17 13:42:26;;;;;;;9.85;4.80;;;;;;;;;;5019396;28;20048;-57
2021/11/17 13:44:54;;;;;;;6.13;3.70;;;;;;;;;;5020112;28;20515;-56
2021/11/17 13:47:21;;;;;;;5.45;3.78;;;;;;;;;;5022129;28;20025;-55
2021/11/17 13:49:51;;;;;;;7.78;4.32;;;;;;;;;;5019994;28;20032;-56
2021/11/17 13:52:20;;;;;;;7.03;4.50;;;;;;;;;;5017618;28;20025;-56
2021/11/17 13:54:46;;;;;;;5.75;3.33;;;;;;;;;;5021611;28;20043;-56
2021/11/17 13:57:14;;;;;;;9.73;4.18;;;;;;;;;;5020080;28;20025;-57
2021/11/17 13:59:40;;;;;;;6.80;3.75;;;;;;;;;;5020390;28;20032;-55
2021/11/17 14:02:07;;;;;;;6.60;3.42;;;;;;;;;;5020186;28;20463;-55
2021/11/17 14:04:33;;;;;;;4.53;3.20;;;;;;;;;;5024693;28;20029;-55
2021/11/17 14:06:58;;;;;;;5.75;3.08;;;;;;;;;;5021039;28;20119;-57
2021/11/17 14:09:26;;;;;;;4.80;3.30;;;;;;;;;;5021784;28;20080;-57
2021/11/17 14:11:52;;;;;;;6.20;3.35;;;;;;;;;;5017815;28;20052;-57
2021/11/17 14:14:18;;;;;;;5.28;3.42;;;;;;;;;;5024977;28;20043;-58
2021/11/17 14:16:44;;;;;;;5.47;2.90;;;;;;;;;;5025185;28;20103;-58
2021/11/17 14:19:09;;;;;;;7.45;3.92;;;;;;;;;;5019694;28;20411;-57
2021/11/17 14:21:35;;;;;;;8.48;4.28;;;;;;;;;;5018418;28;20654;-57
2021/11/17 14:24:01;;;;;;;6.70;3.80;;;;;;;;;;5024942;28;20108;-57
2021/11/17 14:26:28;;;;;;;6.95;4.32;;;;;;;;;;5017769;28;20033;-57
2021/11/17 14:29:08;;;;;;;7.07;4.18;;;;;;;;;;5016884;28;20061;-57
2021/11/17 14:31:39;;;;;;;8.48;4.18;;;;;;;;;;5017890;28;20083;-58
2021/11/17 14:34:05;;;;;;;8.15;4.57;;;;;;;;;;5026221;28;20041;-58
2021/11/17 14:36:47;;;;;;;10.10;4.07;;;;;;;;;;5030581;28;20052;-54
2021/11/17 14:39:13;;;;;;;6.78;4.03;;;;;;;;;;5022603;28;20065;-56
2021/11/17 14:41:39;;;;;;;8.82;5.47;;;;;;;;;;5020858;28;20029;-56
2021/11/17 14:44:06;;;;;;;6.72;4.18;;;;;;;;;;5024452;28;20033;-57
2021/11/17 14:46:32;;;;;;;9.20;4.15;;;;;;;;;;5027787;28;20049;-55
2021/11/17 14:48:58;;;;;;;11.57;5.03;;;;;;;;;;5023145;28;20025;-55
2021/11/17 14:51:23;;;;;;;6.72;3.88;;;;;;;;;;5021667;28;20108;-56
2021/11/17 14:53:51;;;;;;;9.05;4.43;;;;;;;;;;5021648;28;20025;-57
2021/11/17 14:56:17;;;;;;;12.15;4.95;;;;;;;;;;5023073;28;20039;-57
2021/11/17 14:58:43;;;;;;;16.25;6.20;;;;;;;;;;5021673;28;20034;-56
2021/11/17 15:01:14;;;;;;;14.38;5.57;;;;;;;;;;5018921;28;20044;-55
2021/11/17 15:03:41;;;;;;;7.65;4.45;;;;;;;;;;5019181;28;20373;-57
2021/11/17 15:06:07;;;;;;;6.63;3.78;;;;;;;;;;5022721;28;20029;-56
2021/11/17 15:08:33;;;;;;;10.88;4.82;;;;;;;;;;5024417;28;20507;-57
2021/11/17 15:10:58;;;;;;;7.97;4.38;;;;;;;;;;5020827;28;20052;-56
2021/11/17 15:13:24;;;;;;;9.10;4.40;;;;;;;;;;5016171;28;20029;-56
2021/11/17 15:15:49;;;;;;;9.02;4.97;;;;;;;;;;5015662;28;20037;-57
2021/11/17 15:18:20;;;;;;;7.65;4.57;;;;;;;;;;5014515;28;20144;-58
2021/11/17 15:20:45;;;;;;;11.75;5.72;;;;;;;;;;5015709;28;20518;-56
2021/11/17 15:23:11;;;;;;;8.77;4.82;;;;;;;;;;5013295;28;20033;-55
2021/11/17 15:25:39;;;;;;;12.95;6.20;;;;;;;;;;5020305;28;20029;-57
2021/11/17 15:28:13;;;;;;;10.95;4.93;;;;;;;;;;5021123;28;20113;-56
2021/11/17 15:30:43;;;;;;;10.07;5.13;;;;;;;;;;5025674;28;20502;-56
2021/11/17 15:33:09;;;;;;;8.75;5.38;;;;;;;;;;5022409;28;20090;-56
2021/11/17 15:35:35;;;;;;;13.70;5.82;;;;;;;;;;5018939;28;20041;-55
2021/11/17 15:38:03;;;;;;;10.57;5.50;;;;;;;;;;5014993;28;20048;-55
2021/11/17 15:40:32;;;;;;;11.82;5.68;;;;;;;;;;5017890;28;20038;-55
2021/11/17 15:42:59;;;;;;;8.75;4.43;;;;;;;;;;5016425;28;20025;-57
2021/11/17 15:45:25;;;;;;;17.38;9.85;;;;;;;;;;5016164;28;20044;-58
2021/11/17 15:47:52;;;;;;;16.17;10.02;;;;;;;;;;5018140;28;20037;-56
2021/11/17 15:50:22;;;;;;;10.93;6.55;;;;;;;;;;5021901;28;20606;-56
2021/11/17 15:52:48;;;;;;;11.00;6.07;;;;;;;;;;5022110;28;20034;-56
2021/11/17 15:55:13;;;;;;;16.48;9.25;;;;;;;;;;5017451;28;20029;-54
2021/11/17 15:57:41;;;;;;;14.55;9.07;;;;;;;;;;5021401;28;20127;-56
2021/11/17 16:00:09;;;;;;;16.55;9.32;;;;;;;;;;5022999;28;20391;-54
2021/11/17 16:02:35;;;;;;;14.02;8.18;;;;;;;;;;5022292;28;20388;-55
2021/11/17 16:05:02;;;;;;;15.10;7.13;;;;;;;;;;5023688;28;20022;-54
2021/11/17 16:07:27;;;;;;;9.63;5.70;;;;;;;;;;5021604;28;20034;-54
2021/11/17 16:09:55;;;;;;;11.60;6.75;;;;;;;;;;5022741;28;20035;-56
2021/11/17 16:12:22;;;;;;;12.30;5.15;;;;;;;;;;5019756;28;20054;-57
2021/11/17 16:14:48;;;;;;;9.32;5.40;;;;;;;;;;5024392;28;20476;-55
2021/11/17 16:17:14;;;;;;;9.80;5.80;;;;;;;;;;5023061;28;20036;-53
2021/11/17 16:19:44;;;;;;;10.07;5.53;;;;;;;;;;5021975;28;20037;-55
2021/11/17 16:22:17;;;;;;;12.27;6.05;;;;;;;;;;5015304;28;20023;-54
2021/11/17 16:27:28;;;;;;;10.85;6.38;;;;;;;;;;5014114;28;20561;-55
2021/11/17 16:29:53;;;;;;;12.18;4.85;;;;;;;;;;5016960;28;20091;-55
2021/11/17 16:32:21;;;;;;;10.15;4.82;;;;;;;;;;5017154;28;20037;-56
2021/11/17 16:34:49;;;;;;;11.25;5.28;;;;;;;;;;5020273;28;20056;-56
2021/11/17 16:37:14;;;;;;;27.85;9.60;;;;;;;;;;5017947;28;20034;-55
2021/11/17 16:39:40;;;;;;;32.70;11.30;;;;;;;;;;5019089;28;20032;-56
2021/11/17 16:42:06;;;;;;;37.95;12.32;;;;;;;;;;5021270;28;20402;-52
2021/11/17 16:44:32;;;;;;;18.42;6.78;;;;;;;;;;5020334;28;20033;-54
2021/11/17 16:46:58;;;;;;;13.45;6.80;;;;;;;;;;5015676;28;20034;-53
2021/11/17 16:49:24;;;;;;;14.48;6.60;;;;;;;;;;5015666;28;20344;-53
2021/11/17 16:52:08;;;;;;;9.82;5.85;;;;;;;;;;5017382;28;20439;-54
2021/11/17 16:54:35;;;;;;;10.80;6.15;;;;;;;;;;5020537;28;20026;-54
2021/11/17 16:57:00;;;;;;;18.48;7.97;;;;;;;;;;5018141;28;20136;-54
2021/11/17 16:59:26;;;;;;;16.75;7.22;;;;;;;;;;5017567;28;20461;-53
2021/11/17 17:01:51;;;;;;;9.90;5.40;;;;;;;;;;5016449;28;20096;-54
2021/11/17 17:04:17;;;;;;;10.23;5.63;;;;;;;;;;5019296;28;20033;-54
2021/11/17 17:06:43;;;;;;;11.73;6.40;;;;;;;;;;5027369;28;20032;-54
2021/11/17 17:09:09;;;;;;;15.65;7.88;;;;;;;;;;5022077;28;20396;-54
2021/11/17 17:11:35;;;;;;;11.98;6.60;;;;;;;;;;5022739;28;20022;-52
2021/11/17 17:14:03;;;;;;;11.48;7.53;;;;;;;;;;5023553;28;20025;-53
2021/11/17 17:16:29;;;;;;;13.63;8.30;;;;;;;;;;5023289;28;20091;-54
2021/11/17 17:18:55;;;;;;;15.27;7.32;;;;;;;;;;5020790;28;20030;-52
2021/11/17 17:21:20;;;;;;;7.60;4.30;;;;;;;;;;5015937;28;20051;-52
2021/11/17 17:23:46;;;;;;;8.05;4.90;;;;;;;;;;5017676;28;20590;-55
2021/11/17 17:26:14;;;;;;;12.85;6.65;;;;;;;;;;5022316;28;20022;-54
2021/11/17 17:28:41;;;;;;;9.55;4.63;;;;;;;;;;5020402;28;20113;-52
2021/11/17 17:31:09;;;;;;;13.48;7.93;;;;;;;;;;5017775;28;20487;-54
2021/11/17 17:33:37;;;;;;;12.30;7.13;;;;;;;;;;5019760;28;20412;-54
2021/11/17 17:36:04;;;;;;;9.50;5.00;;;;;;;;;;5031602;28;20079;-56
2021/11/17 17:38:30;;;;;;;11.88;5.28;;;;;;;;;;5023986;28;20031;-55
2021/11/17 17:40:56;;;;;;;9.32;5.15;;;;;;;;;;5022041;28;20034;-51
2021/11/17 17:43:23;;;;;;;10.75;5.45;;;;;;;;;;5018748;28;20029;-53